createdAt,value
2024-02-01T00:00:22.560Z,41.53
2024-02-01T00:01:25.510Z,43.03
2024-02-01T00:02:27.320Z,43.45
2024-02-01T00:03:30.266Z,46.97
2024-02-01T00:04:32.216Z,48.60
2024-02-01T00:05:35.278Z,45.67
2024-02-01T00:06:40.210Z,43.78
2024-02-01T00:07:43.140Z,44.13
2024-02-01T00:08:45.070Z,48.00
2024-02-01T00:09:50.818Z,43.67
2024-02-01T00:11:04.429Z,48.03
2024-02-01T00:12:08.196Z,43.03
2024-02-01T00:13:10.812Z,48.67
2024-02-01T00:14:13.752Z,49.05
2024-02-01T00:15:15.883Z,50.95
2024-02-01T00:16:22.347Z,50.50
2024-02-01T00:17:24.551Z,51.30
2024-02-01T00:18:27.411Z,47.58
2024-02-01T00:19:29.391Z,51.50
2024-02-01T00:20:32.292Z,48.00
2024-02-01T00:21:34.273Z,49.33
2024-02-01T00:22:38.376Z,50.65
2024-02-01T00:23:41.450Z,51.60
2024-02-01T00:24:43.368Z,52.58
2024-02-01T00:25:46.316Z,53.42
2024-02-01T00:26:48.211Z,50.63
2024-02-01T00:27:51.148Z,53.25
2024-02-01T00:28:52.946Z,47.38
2024-02-01T00:29:55.032Z,50.97
2024-02-01T00:30:57.893Z,50.80
2024-02-01T00:31:59.831Z,49.28
2024-02-01T00:33:04.688Z,53.95
2024-02-01T00:34:06.942Z,53.25
2024-02-01T00:35:10.130Z,49.10
2024-02-01T00:36:12.277Z,51.33
2024-02-01T00:37:15.068Z,51.35
2024-02-01T00:38:18.393Z,53.08
2024-02-01T00:39:20.349Z,52.80
2024-02-01T00:40:23.277Z,51.97
2024-02-01T00:41:25.254Z,48.70
2024-02-01T00:42:28.648Z,48.90
2024-02-01T00:43:30.638Z,47.85
2024-02-01T00:44:33.597Z,50.30
2024-02-01T00:45:35.470Z,53.75
2024-02-01T00:46:38.400Z,53.30
2024-02-01T00:47:40.471Z,50.65
2024-02-01T00:48:43.592Z,49.95
2024-02-01T00:49:45.563Z,52.70
2024-02-01T00:50:48.647Z,49.95
2024-02-01T00:51:50.550Z,48.42
2024-02-01T00:52:53.443Z,45.75
2024-02-01T00:53:56.717Z,50.38
2024-02-01T00:54:59.735Z,48.83
2024-02-01T00:56:01.601Z,47.20
2024-02-01T00:57:05.603Z,45.10
2024-02-01T00:58:07.501Z,50.17
2024-02-01T00:59:10.412Z,45.72
2024-02-01T01:00:14.031Z,47.35
2024-02-01T01:01:16.268Z,44.70
2024-02-01T01:02:19.148Z,45.70
2024-02-01T01:03:21.181Z,39.30
2024-02-01T01:04:24.018Z,44.38
2024-02-01T01:05:25.958Z,42.25
2024-02-01T01:06:29.303Z,41.97
2024-02-01T01:07:31.394Z,38.63
2024-02-01T01:08:34.229Z,45.45
2024-02-01T01:09:37.708Z,41.70
2024-02-01T01:10:40.625Z,39.30
2024-02-01T01:11:42.587Z,41.78
2024-02-01T01:12:45.474Z,39.28
2024-02-01T01:13:47.489Z,40.65
2024-02-01T01:14:50.724Z,38.95
2024-02-01T01:15:52.684Z,40.67
2024-02-01T01:16:55.531Z,38.40
2024-02-01T01:17:57.602Z,39.55
2024-02-01T01:19:00.713Z,32.85
2024-02-01T01:20:04.526Z,37.70
2024-02-01T01:21:07.617Z,35.58
2024-02-01T01:22:09.624Z,36.70
2024-02-01T01:23:12.417Z,35.25
2024-02-01T01:24:14.516Z,37.05
2024-02-01T01:25:18.923Z,35.63
2024-02-01T01:26:21.995Z,34.53
2024-02-01T01:27:24.825Z,35.55
2024-02-01T01:28:26.829Z,35.95
2024-02-01T01:29:29.672Z,34.75
2024-02-01T01:30:31.787Z,32.53
2024-02-01T01:31:34.553Z,34.22
2024-02-01T01:32:36.692Z,35.75
2024-02-01T01:33:39.655Z,37.72
2024-02-01T01:34:41.771Z,36.88
2024-02-01T01:35:43.644Z,35.63
2024-02-01T01:36:46.623Z,33.25
2024-02-01T01:37:48.468Z,35.35
2024-02-01T01:38:51.474Z,34.60
2024-02-01T01:39:53.476Z,38.50
2024-02-01T01:40:58.060Z,33.92
2024-02-01T01:41:59.969Z,35.00
2024-02-01T01:43:05.247Z,34.20
2024-02-01T01:44:07.128Z,34.03
2024-02-01T01:45:10.732Z,36.05
2024-02-01T01:46:13.328Z,37.22
2024-02-01T01:47:16.729Z,36.00
2024-02-01T01:48:18.634Z,33.75
2024-02-01T01:49:21.894Z,33.90
2024-02-01T01:50:23.809Z,35.13
2024-02-01T01:51:26.798Z,35.58
2024-02-01T01:52:29.134Z,35.58
2024-02-01T01:53:33.314Z,31.45
2024-02-01T01:54:36.481Z,36.47
2024-02-01T01:55:39.652Z,32.95
2024-02-01T01:56:43.746Z,33.65
2024-02-01T01:57:46.885Z,32.30
2024-02-01T01:58:49.325Z,35.63
2024-02-01T01:59:52.341Z,34.25
2024-02-01T02:00:54.391Z,34.92
2024-02-01T02:01:58.404Z,34.78
2024-02-01T02:03:00.632Z,40.58
2024-02-01T02:04:05.044Z,35.92
2024-02-01T02:05:07.436Z,33.15
2024-02-01T02:06:10.440Z,31.83
2024-02-01T02:07:12.381Z,33.35
2024-02-01T02:08:15.367Z,35.05
2024-02-01T02:09:17.450Z,36.10
2024-02-01T02:10:20.841Z,34.35
2024-02-01T02:11:24.812Z,36.95
2024-02-01T02:12:29.149Z,34.70
2024-02-01T02:13:31.210Z,34.38
2024-02-01T02:14:33.131Z,38.17
2024-02-01T02:15:36.133Z,32.30
2024-02-01T02:16:38.719Z,35.30
2024-02-01T02:17:41.937Z,31.80
2024-02-01T02:18:44.151Z,34.92
2024-02-01T02:19:47.194Z,31.27
2024-02-01T02:20:53.045Z,30.33
2024-02-01T02:21:56.486Z,34.53
2024-02-01T02:22:59.280Z,32.92
2024-02-01T02:24:01.491Z,34.88
2024-02-01T02:25:06.288Z,34.95
2024-02-01T02:26:09.313Z,36.30
2024-02-01T02:27:12.150Z,31.13
2024-02-01T02:28:14.152Z,36.00
2024-02-01T02:29:17.564Z,29.00
2024-02-01T02:30:19.673Z,30.15
2024-02-01T02:31:22.528Z,30.45
2024-02-01T02:32:24.520Z,29.33
2024-02-01T02:33:27.408Z,29.25
2024-02-01T02:34:29.527Z,28.52
2024-02-01T02:35:32.537Z,33.22
2024-02-01T02:36:34.497Z,30.27
2024-02-01T02:37:45.835Z,27.60
2024-02-01T02:38:47.829Z,29.60
2024-02-01T02:39:50.632Z,28.52
2024-02-01T02:40:52.581Z,34.55
2024-02-01T02:41:55.540Z,27.38
2024-02-01T02:42:57.543Z,31.70
2024-02-01T02:44:02.178Z,30.10
2024-02-01T02:45:04.642Z,32.50
2024-02-01T02:46:07.584Z,32.58
2024-02-01T02:47:09.737Z,30.40
2024-02-01T02:48:12.744Z,30.38
2024-02-01T02:49:14.988Z,29.15
2024-02-01T02:50:18.093Z,30.50
2024-02-01T02:51:20.099Z,31.45
2024-02-01T02:52:22.906Z,30.95
2024-02-01T02:53:26.237Z,31.30
2024-02-01T02:54:29.022Z,25.45
2024-02-01T02:55:31.024Z,29.52
2024-02-01T02:56:33.981Z,29.40
2024-02-01T02:57:36.363Z,30.35
2024-02-01T02:58:39.623Z,32.30
2024-02-01T02:59:42.508Z,32.47
2024-02-01T03:00:44.409Z,30.23
2024-02-01T03:01:47.369Z,31.20
2024-02-01T03:02:49.487Z,26.42
2024-02-01T03:03:52.494Z,27.98
2024-02-01T03:04:54.391Z,26.15
2024-02-01T03:05:57.363Z,27.52
2024-02-01T03:06:59.310Z,28.25
2024-02-01T03:08:06.083Z,29.00
2024-02-01T03:09:11.143Z,27.42
2024-02-01T03:10:16.744Z,28.92
2024-02-01T03:11:18.723Z,27.13
2024-02-01T03:12:21.616Z,27.77
2024-02-01T03:13:23.687Z,26.38
2024-02-01T03:14:26.478Z,25.67
2024-02-01T03:15:30.360Z,31.38
2024-02-01T03:16:33.243Z,26.63
2024-02-01T03:17:36.532Z,28.35
2024-02-01T03:18:39.477Z,27.98
2024-02-01T03:19:41.601Z,30.45
2024-02-01T03:20:45.579Z,28.27
2024-02-01T03:21:49.472Z,29.80
2024-02-01T03:22:56.123Z,26.58
2024-02-01T03:24:01.937Z,31.20
2024-02-01T03:25:08.132Z,28.17
2024-02-01T03:26:11.251Z,26.98
2024-02-01T03:27:13.695Z,27.55
2024-02-01T03:28:16.817Z,25.23
2024-02-01T03:29:18.706Z,29.73
2024-02-01T03:30:21.127Z,28.10
2024-02-01T03:31:23.904Z,26.35
2024-02-01T03:32:31.154Z,25.65
2024-02-01T03:33:40.085Z,31.23
2024-02-01T03:34:43.585Z,28.17
2024-02-01T03:35:46.858Z,29.70
2024-02-01T03:36:50.823Z,28.35
2024-02-01T03:37:53.579Z,28.67
2024-02-01T03:38:55.619Z,28.67
2024-02-01T03:39:57.657Z,27.50
2024-02-01T03:41:01.966Z,29.63
2024-02-01T03:42:06.528Z,25.75
2024-02-01T03:43:12.346Z,27.20
2024-02-01T03:44:14.174Z,27.65
2024-02-01T03:45:17.732Z,27.17
2024-02-01T03:46:20.640Z,26.55
2024-02-01T03:47:24.302Z,30.48
2024-02-01T03:48:26.302Z,26.45
2024-02-01T03:49:29.357Z,26.98
2024-02-01T03:50:31.287Z,29.05
2024-02-01T03:51:37.074Z,28.50
2024-02-01T03:52:39.388Z,29.17
2024-02-01T03:53:42.284Z,28.38
2024-02-01T03:54:44.228Z,26.40
2024-02-01T03:55:50.397Z,26.75
2024-02-01T03:56:55.520Z,26.02
2024-02-01T03:58:01.161Z,27.23
2024-02-01T03:59:03.594Z,26.65
2024-02-01T04:00:25.668Z,26.65
2024-02-01T04:01:27.736Z,27.02
2024-02-01T04:02:30.640Z,25.92
2024-02-01T04:03:32.621Z,29.15
2024-02-01T04:04:35.526Z,28.70
2024-02-01T04:05:38.070Z,27.73
2024-02-01T04:06:41.149Z,27.60
2024-02-01T04:07:43.119Z,24.80
2024-02-01T04:08:45.901Z,28.48
2024-02-01T04:09:48.755Z,26.23
2024-02-01T04:10:52.239Z,28.02
2024-02-01T04:11:55.763Z,24.83
2024-02-01T04:12:59.036Z,26.98
2024-02-01T04:14:01.020Z,28.65
2024-02-01T04:15:04.354Z,27.95
2024-02-01T04:16:06.989Z,26.65
2024-02-01T04:17:09.890Z,26.38
2024-02-01T04:18:11.977Z,28.60
2024-02-01T04:19:15.461Z,29.40
2024-02-01T04:20:17.671Z,32.00
2024-02-01T04:21:20.643Z,27.70
2024-02-01T04:22:22.721Z,26.85
2024-02-01T04:23:25.691Z,28.75
2024-02-01T04:24:27.628Z,25.20
2024-02-01T04:25:30.462Z,27.73
2024-02-01T04:26:32.478Z,28.15
2024-02-01T04:27:36.727Z,27.02
2024-02-01T04:28:39.148Z,25.13
2024-02-01T04:29:42.013Z,31.08
2024-02-01T04:30:51.423Z,26.25
2024-02-01T04:31:54.945Z,27.58
2024-02-01T04:32:57.359Z,23.13
2024-02-01T04:34:01.717Z,28.08
2024-02-01T04:35:05.421Z,26.33
2024-02-01T04:36:09.980Z,27.55
2024-02-01T04:37:13.492Z,27.40
2024-02-01T04:38:15.441Z,29.35
2024-02-01T04:39:18.461Z,28.88
2024-02-01T04:40:22.080Z,27.05
2024-02-01T04:41:26.046Z,28.00
2024-02-01T04:42:31.532Z,31.55
2024-02-01T04:43:37.531Z,28.40
2024-02-01T04:44:39.347Z,25.85
2024-02-01T04:45:43.237Z,28.48
2024-02-01T04:46:45.264Z,27.60
2024-02-01T04:47:49.085Z,29.70
2024-02-01T04:48:52.211Z,29.88
2024-02-01T04:49:54.221Z,30.77
2024-02-01T04:50:57.222Z,29.05
2024-02-01T04:51:59.101Z,28.35
2024-02-01T04:53:01.993Z,29.02
2024-02-01T04:54:05.239Z,30.88
2024-02-01T04:55:10.800Z,30.92
2024-02-01T04:56:12.808Z,32.50
2024-02-01T04:57:16.106Z,27.80
2024-02-01T04:58:19.356Z,30.40
2024-02-01T04:59:23.782Z,33.20
2024-02-01T05:00:27.934Z,33.67
2024-02-01T05:01:32.417Z,33.95
2024-02-01T05:02:34.357Z,30.23
2024-02-01T05:03:37.836Z,33.33
2024-02-01T05:04:40.107Z,35.78
2024-02-01T05:05:46.383Z,32.97
2024-02-01T05:06:48.762Z,33.30
2024-02-01T05:07:51.685Z,30.35
2024-02-01T05:08:54.163Z,37.38
2024-02-01T05:09:57.164Z,32.13
2024-02-01T05:10:59.281Z,35.10
2024-02-01T05:12:03.165Z,35.03
2024-02-01T05:13:05.204Z,32.92
2024-02-01T05:14:11.990Z,34.20
2024-02-01T05:15:15.473Z,29.42
2024-02-01T05:16:18.288Z,32.67
2024-02-01T05:17:20.251Z,35.85
2024-02-01T05:18:23.189Z,33.58
2024-02-01T05:19:26.581Z,34.70
2024-02-01T05:20:29.574Z,31.88
2024-02-01T05:21:31.564Z,32.08
2024-02-01T05:22:34.360Z,37.03
2024-02-01T05:23:36.769Z,33.90
2024-02-01T05:24:39.575Z,32.22
2024-02-01T05:25:41.972Z,34.92
2024-02-01T05:26:47.517Z,30.85
2024-02-01T05:27:52.428Z,31.48
2024-02-01T05:28:55.810Z,29.42
2024-02-01T05:29:57.812Z,35.47
2024-02-01T05:31:01.959Z,29.52
2024-02-01T05:32:07.277Z,31.80
2024-02-01T05:33:10.597Z,29.92
2024-02-01T05:34:12.692Z,33.03
2024-02-01T05:35:15.225Z,29.95
2024-02-01T05:36:18.189Z,36.28
2024-02-01T05:37:20.072Z,30.35
2024-02-01T05:38:23.081Z,33.90
2024-02-01T05:39:28.120Z,33.13
2024-02-01T05:40:32.649Z,27.90
2024-02-01T05:41:34.513Z,28.75
2024-02-01T05:42:37.452Z,32.67
2024-02-01T05:43:39.296Z,34.47
2024-02-01T05:44:42.247Z,32.20
2024-02-01T05:45:44.140Z,32.35
2024-02-01T05:46:48.669Z,31.55
2024-02-01T05:47:52.698Z,31.30
2024-02-01T05:48:56.117Z,32.03
2024-02-01T05:49:59.761Z,32.28
2024-02-01T05:51:01.839Z,34.17
2024-02-01T05:52:06.235Z,32.45
2024-02-01T05:53:10.717Z,33.53
2024-02-01T05:54:13.613Z,34.70
2024-02-01T05:55:15.625Z,31.98
2024-02-01T05:56:18.384Z,36.33
2024-02-01T05:57:21.417Z,33.58
2024-02-01T05:58:24.602Z,32.30
2024-02-01T05:59:26.685Z,32.40
2024-02-01T06:00:30.457Z,32.95
2024-02-01T06:01:33.787Z,32.75
2024-02-01T06:02:37.995Z,32.60
2024-02-01T06:03:39.940Z,31.83
2024-02-01T06:04:44.501Z,37.30
2024-02-01T06:05:50.772Z,35.03
2024-02-01T06:06:54.601Z,34.60
2024-02-01T06:07:56.686Z,32.58
2024-02-01T06:08:59.518Z,37.17
2024-02-01T06:10:01.548Z,31.35
2024-02-01T06:11:04.496Z,31.45
2024-02-01T06:12:06.728Z,32.35
2024-02-01T06:13:09.642Z,34.45
2024-02-01T06:14:12.314Z,34.22
2024-02-01T06:15:15.224Z,33.10
2024-02-01T06:16:17.124Z,34.05
2024-02-01T06:17:20.082Z,35.13
2024-02-01T06:18:23.629Z,37.80
2024-02-01T06:19:25.780Z,30.58
2024-02-01T06:20:29.416Z,30.90
2024-02-01T06:21:33.038Z,31.98
2024-02-01T06:22:36.083Z,30.35
2024-02-01T06:23:38.228Z,30.95
2024-02-01T06:24:40.998Z,33.90
2024-02-01T06:25:44.661Z,35.58
2024-02-01T06:26:47.564Z,31.17
2024-02-01T06:27:49.885Z,32.10
2024-02-01T06:28:51.736Z,30.48
2024-02-01T06:29:54.673Z,36.88
2024-02-01T06:30:56.505Z,28.80
2024-02-01T06:31:59.461Z,32.38
2024-02-01T06:33:02.321Z,31.75
2024-02-01T06:34:06.918Z,30.17
2024-02-01T06:35:17.590Z,32.35
2024-02-01T06:36:21.019Z,28.40
2024-02-01T06:37:23.160Z,31.55
2024-02-01T06:38:46.354Z,31.08
2024-02-01T06:40:09.936Z,33.25
2024-02-01T06:41:29.018Z,33.30
2024-02-01T06:42:34.373Z,32.15
2024-02-01T06:44:02.758Z,29.92
2024-02-01T06:45:25.127Z,32.95
2024-02-01T06:46:48.042Z,32.63
2024-02-01T06:47:51.917Z,31.05
2024-02-01T06:49:12.840Z,31.42
2024-02-01T06:50:18.078Z,36.72
2024-02-01T06:51:27.074Z,29.15
2024-02-01T06:52:41.003Z,29.83
2024-02-01T06:53:55.553Z,31.95
2024-02-01T06:55:07.751Z,31.80
2024-02-01T06:56:19.358Z,27.30
2024-02-01T06:57:23.855Z,28.02
2024-02-01T06:58:49.295Z,32.75
2024-02-01T07:00:16.046Z,29.65
2024-02-01T07:01:49.929Z,28.55
2024-02-01T07:03:02.937Z,34.35
2024-02-01T07:04:17.615Z,29.13
2024-02-01T07:05:27.124Z,30.52
2024-02-01T07:06:36.680Z,30.33
2024-02-01T07:07:44.119Z,25.92
2024-02-01T07:08:54.258Z,29.10
2024-02-01T07:10:00.376Z,28.70
2024-02-01T07:11:15.438Z,28.77
2024-02-01T07:12:40.432Z,29.50
2024-02-01T07:13:48.803Z,23.63
2024-02-01T07:15:10.530Z,31.90
2024-02-01T07:16:23.232Z,28.85
2024-02-01T07:17:28.857Z,27.02
2024-02-01T07:18:32.354Z,28.48
2024-02-01T07:19:54.159Z,29.95
2024-02-01T07:21:01.550Z,27.58
2024-02-01T07:22:07.668Z,29.65
2024-02-01T07:23:35.241Z,26.58
2024-02-01T07:24:50.144Z,25.42
2024-02-01T07:26:02.706Z,26.83
2024-02-01T07:27:26.234Z,28.23
2024-02-01T07:28:48.442Z,27.05
2024-02-01T07:30:08.793Z,27.75
2024-02-01T07:31:29.166Z,27.73
2024-02-01T07:32:49.354Z,27.92
2024-02-01T07:34:21.421Z,29.25
2024-02-01T07:35:42.007Z,28.75
2024-02-01T07:37:04.056Z,25.90
2024-02-01T07:38:24.586Z,27.80
2024-02-01T07:39:44.870Z,29.85
2024-02-01T07:41:05.176Z,29.02
2024-02-01T07:42:26.011Z,24.02
2024-02-01T07:43:46.224Z,29.75
2024-02-01T07:45:08.813Z,30.42
2024-02-01T07:46:30.240Z,30.75
2024-02-01T07:47:51.740Z,27.33
2024-02-01T07:49:11.371Z,28.83
2024-02-01T07:50:32.170Z,31.27
2024-02-01T07:51:52.361Z,33.90
2024-02-01T07:53:14.680Z,29.48
2024-02-01T07:54:34.953Z,33.65
2024-02-01T07:55:55.973Z,32.05
2024-02-01T07:57:16.289Z,35.33
2024-02-01T07:58:22.591Z,31.38
2024-02-01T07:59:30.587Z,32.97
2024-02-01T08:00:36.203Z,36.80
2024-02-01T08:01:59.338Z,31.92
2024-02-01T08:03:05.106Z,36.65
2024-02-01T08:04:14.654Z,36.42
2024-02-01T08:05:35.888Z,35.05
2024-02-01T08:06:58.420Z,36.08
2024-02-01T08:08:02.867Z,33.65
2024-02-01T08:09:12.764Z,32.70
2024-02-01T08:10:20.239Z,33.50
2024-02-01T08:11:23.348Z,34.28
2024-02-01T08:12:34.598Z,29.88
2024-02-01T08:13:36.831Z,30.20
2024-02-01T08:14:39.838Z,31.85
2024-02-01T08:15:43.394Z,34.28
2024-02-01T08:16:47.647Z,29.00
2024-02-01T08:17:50.156Z,30.15
2024-02-01T08:18:53.187Z,29.83
2024-02-01T08:19:56.693Z,31.25
2024-02-01T08:20:59.159Z,30.25
2024-02-01T08:22:02.055Z,34.72
2024-02-01T08:23:05.679Z,33.80
2024-02-01T08:24:10.589Z,31.38
2024-02-01T08:25:12.855Z,29.35
2024-02-01T08:26:18.371Z,36.75
2024-02-01T08:27:20.634Z,38.03
2024-02-01T08:28:30.932Z,34.85
2024-02-01T08:29:37.943Z,32.80
2024-02-01T08:30:40.436Z,35.88
2024-02-01T08:31:43.250Z,30.17
2024-02-01T08:32:45.188Z,34.92
2024-02-01T08:33:54.068Z,29.27
2024-02-01T08:34:58.363Z,30.80
2024-02-01T08:36:03.441Z,32.45
2024-02-01T08:37:10.679Z,30.10
2024-02-01T08:38:16.354Z,33.63
2024-02-01T08:39:19.352Z,36.28
2024-02-01T08:40:22.107Z,32.00
2024-02-01T08:41:25.009Z,33.85
2024-02-01T08:42:34.171Z,36.83
2024-02-01T08:43:39.803Z,31.77
2024-02-01T08:44:44.513Z,32.92
2024-02-01T08:45:46.907Z,30.63
2024-02-01T08:46:51.412Z,34.08
2024-02-01T08:47:53.813Z,34.53
2024-02-01T08:48:56.943Z,32.55
2024-02-01T08:50:07.465Z,33.08
2024-02-01T08:51:10.470Z,30.80
2024-02-01T08:52:15.431Z,31.98
2024-02-01T08:53:20.738Z,34.92
2024-02-01T08:54:22.639Z,34.83
2024-02-01T08:55:26.285Z,36.67
2024-02-01T08:56:37.796Z,33.35
2024-02-01T08:57:40.434Z,36.20
2024-02-01T08:58:43.916Z,34.45
2024-02-01T08:59:46.132Z,31.10
2024-02-01T09:00:50.248Z,34.63
2024-02-01T09:01:53.781Z,35.60
2024-02-01T09:03:07.867Z,33.92
2024-02-01T09:04:16.166Z,41.50
2024-02-01T09:05:21.035Z,33.50
2024-02-01T09:06:24.385Z,33.15
2024-02-01T09:07:28.564Z,29.83
2024-02-01T09:08:37.829Z,36.60
2024-02-01T09:09:41.078Z,32.80
2024-02-01T09:10:51.888Z,30.98
2024-02-01T09:11:54.078Z,35.67
2024-02-01T09:12:56.244Z,36.03
2024-02-01T09:14:01.681Z,34.42
2024-02-01T09:15:04.180Z,32.35
2024-02-01T09:16:09.445Z,33.60
2024-02-01T09:17:11.281Z,33.63
2024-02-01T09:18:14.445Z,52.97
2024-02-01T09:19:16.638Z,36.13
2024-02-01T09:20:19.221Z,56.20
2024-02-01T09:21:22.281Z,36.08
2024-02-01T09:22:36.694Z,35.55
2024-02-01T09:23:40.875Z,37.78
2024-02-01T09:24:42.923Z,29.58
2024-02-01T09:25:46.082Z,31.27
2024-02-01T09:26:48.580Z,37.92
2024-02-01T09:27:51.928Z,38.08
2024-02-01T09:28:53.939Z,34.05
2024-02-01T09:30:00.472Z,34.08
2024-02-01T09:31:19.600Z,36.80
2024-02-01T09:32:23.587Z,34.80
2024-02-01T09:33:28.891Z,39.25
2024-02-01T09:34:32.081Z,31.27
2024-02-01T09:35:37.422Z,30.05
2024-02-01T09:36:40.438Z,35.22
2024-02-01T09:37:43.268Z,34.10
2024-02-01T09:38:48.196Z,33.90
2024-02-01T09:39:50.072Z,39.53
2024-02-01T09:40:53.612Z,39.10
2024-02-01T09:41:56.072Z,38.42
2024-02-01T09:42:59.136Z,35.58
2024-02-01T09:44:01.084Z,34.65
2024-02-01T09:45:06.605Z,35.38
2024-02-01T09:46:09.504Z,33.38
2024-02-01T09:47:11.960Z,37.30
2024-02-01T09:48:17.346Z,33.80
2024-02-01T09:49:25.518Z,33.15
2024-02-01T09:50:34.763Z,36.60
2024-02-01T09:51:36.765Z,35.67
2024-02-01T09:52:41.150Z,39.25
2024-02-01T09:53:44.876Z,37.00
2024-02-01T09:54:49.152Z,35.00
2024-02-01T09:55:53.926Z,36.95
2024-02-01T09:56:57.942Z,35.60
2024-02-01T09:58:00.896Z,36.40
2024-02-01T09:59:04.150Z,33.78
2024-02-01T10:00:13.763Z,34.72
2024-02-01T10:01:16.909Z,32.88
2024-02-01T10:02:19.649Z,35.60
2024-02-01T10:03:24.988Z,39.63
2024-02-01T10:04:27.384Z,37.28
2024-02-01T10:05:30.426Z,35.45
2024-02-01T10:06:32.342Z,31.08
2024-02-01T10:07:35.502Z,32.58
2024-02-01T10:08:38.098Z,34.90
2024-02-01T10:09:41.040Z,35.50
2024-02-01T10:10:46.380Z,33.63
2024-02-01T10:11:49.381Z,35.92
2024-02-01T10:12:53.183Z,31.63
2024-02-01T10:14:01.902Z,39.53
2024-02-01T10:15:12.279Z,36.08
2024-02-01T10:16:17.967Z,38.30
2024-02-01T10:17:21.045Z,51.88
2024-02-01T10:18:27.084Z,43.17
2024-02-01T10:19:29.665Z,47.80
2024-02-01T10:20:35.388Z,32.80
2024-02-01T10:21:44.615Z,35.85
2024-02-01T10:22:58.441Z,32.58
2024-02-01T10:24:05.649Z,37.28
2024-02-01T10:25:10.593Z,53.28
2024-02-01T10:26:24.367Z,41.13
2024-02-01T10:27:29.489Z,38.10
2024-02-01T10:28:36.495Z,38.70
2024-02-01T10:29:41.733Z,38.97
2024-02-01T10:30:46.340Z,37.53
2024-02-01T10:31:51.979Z,37.65
2024-02-01T10:32:58.504Z,36.97
2024-02-01T10:34:10.199Z,37.63
2024-02-01T10:35:15.475Z,43.53
2024-02-01T10:36:22.077Z,36.00
2024-02-01T10:37:26.379Z,38.38
2024-02-01T10:38:29.255Z,36.15
2024-02-01T10:39:36.031Z,42.25
2024-02-01T10:40:41.271Z,35.10
2024-02-01T10:41:49.097Z,35.15
2024-02-01T10:42:50.916Z,29.58
2024-02-01T10:43:54.494Z,39.90
2024-02-01T10:44:58.268Z,36.63
2024-02-01T10:46:08.592Z,32.05
2024-02-01T10:47:14.878Z,41.92
2024-02-01T10:48:19.848Z,37.13
2024-02-01T10:49:24.058Z,34.85
2024-02-01T10:50:33.994Z,34.60
2024-02-01T10:51:37.813Z,28.92
2024-02-01T10:52:39.943Z,32.25
2024-02-01T10:53:44.548Z,38.25
2024-02-01T10:54:48.159Z,34.15
2024-02-01T10:55:52.834Z,36.13
2024-02-01T10:57:03.559Z,34.15
2024-02-01T10:58:06.886Z,30.05
2024-02-01T10:59:10.078Z,30.25
2024-02-01T11:00:21.510Z,26.90
2024-02-01T11:01:25.793Z,28.95
2024-02-01T11:02:28.790Z,30.70
2024-02-01T11:03:33.409Z,30.38
2024-02-01T11:04:38.073Z,26.17
2024-02-01T11:05:43.154Z,26.27
2024-02-01T11:06:50.314Z,26.38
2024-02-01T11:07:52.560Z,26.75
2024-02-01T11:08:56.267Z,24.08
2024-02-01T11:09:59.889Z,23.95
2024-02-01T11:11:01.916Z,26.17
2024-02-01T11:12:13.229Z,25.80
2024-02-01T11:13:29.156Z,26.27
2024-02-01T11:14:33.248Z,29.00
2024-02-01T11:15:35.370Z,33.15
2024-02-01T11:16:39.063Z,30.52
2024-02-01T11:17:41.956Z,28.83
2024-02-01T11:18:51.604Z,33.10
2024-02-01T11:19:55.183Z,24.92
2024-02-01T11:20:58.710Z,25.80
2024-02-01T11:22:04.853Z,29.10
2024-02-01T11:23:07.181Z,28.05
2024-02-01T11:24:10.511Z,27.63
2024-02-01T11:25:12.843Z,25.30
2024-02-01T11:26:16.648Z,25.88
2024-02-01T11:27:22.286Z,24.75
2024-02-01T11:28:31.160Z,29.50
2024-02-01T11:29:36.031Z,28.50
2024-02-01T11:30:39.771Z,22.65
2024-02-01T11:31:48.066Z,21.50
2024-02-01T11:32:53.424Z,22.70
2024-02-01T11:33:55.893Z,24.08
2024-02-01T11:35:01.027Z,25.15
2024-02-01T11:36:04.230Z,24.20
2024-02-01T11:37:07.177Z,27.20
2024-02-01T11:38:10.700Z,24.98
2024-02-01T11:39:14.525Z,22.80
2024-02-01T11:40:19.799Z,23.70
2024-02-01T11:41:24.235Z,21.80
2024-02-01T11:42:32.253Z,25.35
2024-02-01T11:43:39.783Z,23.33
2024-02-01T11:44:41.958Z,21.98
2024-02-01T11:45:54.728Z,25.75
2024-02-01T11:46:57.348Z,23.48
2024-02-01T11:47:59.460Z,24.70
2024-02-01T11:49:02.588Z,21.15
2024-02-01T11:50:05.755Z,23.52
2024-02-01T11:51:09.609Z,25.85
2024-02-01T11:52:17.016Z,24.58
2024-02-01T11:53:20.085Z,26.33
2024-02-01T11:54:22.061Z,21.90
2024-02-01T11:55:28.650Z,23.55
2024-02-01T11:56:33.568Z,25.75
2024-02-01T11:57:48.307Z,23.98
2024-02-01T11:58:50.420Z,24.65
2024-02-01T11:59:56.638Z,21.10
2024-02-01T12:01:06.709Z,28.25
2024-02-01T12:02:17.308Z,22.65
2024-02-01T12:03:21.190Z,22.05
2024-02-01T12:04:24.600Z,25.02
2024-02-01T12:05:27.797Z,27.52
2024-02-01T12:06:30.765Z,25.48
2024-02-01T12:07:32.582Z,33.67
2024-02-01T12:08:36.186Z,27.20
2024-02-01T12:09:38.106Z,24.70
2024-02-01T12:10:46.059Z,26.80
2024-02-01T12:11:48.753Z,24.90
2024-02-01T12:12:53.076Z,33.00
2024-02-01T12:13:55.993Z,25.17
2024-02-01T12:14:59.422Z,30.77
2024-02-01T12:16:01.257Z,30.60
2024-02-01T12:17:05.314Z,28.02
2024-02-01T12:18:09.658Z,39.38
2024-02-01T12:19:14.842Z,31.25
2024-02-01T12:20:17.367Z,34.88
2024-02-01T12:21:27.791Z,32.92
2024-02-01T12:22:33.163Z,34.83
2024-02-01T12:23:36.076Z,30.15
2024-02-01T12:24:38.216Z,31.67
2024-02-01T12:25:41.914Z,32.78
2024-02-01T12:26:44.024Z,35.72
2024-02-01T12:27:47.335Z,30.73
2024-02-01T12:28:51.039Z,32.17
2024-02-01T12:29:53.945Z,28.13
2024-02-01T12:31:11.284Z,28.20
2024-02-01T12:32:14.602Z,29.67
2024-02-01T12:33:17.124Z,29.10
2024-02-01T12:34:21.133Z,32.25
2024-02-01T12:35:23.332Z,39.75
2024-02-01T12:36:26.177Z,42.22
2024-02-01T12:37:28.188Z,30.73
2024-02-01T12:38:42.318Z,31.23
2024-02-01T12:39:44.786Z,29.77
2024-02-01T12:40:47.855Z,41.90
2024-02-01T12:41:49.939Z,35.00
2024-02-01T12:42:54.522Z,34.03
2024-02-01T12:43:57.815Z,32.33
2024-02-01T12:45:00.906Z,37.50
2024-02-01T12:46:03.625Z,34.15
2024-02-01T12:47:07.273Z,33.60
2024-02-01T12:48:09.240Z,34.15
2024-02-01T12:49:14.158Z,34.00
2024-02-01T12:50:17.098Z,29.15
2024-02-01T12:51:19.326Z,31.95
2024-02-01T12:52:22.188Z,35.35
2024-02-01T12:53:24.285Z,31.48
2024-02-01T12:54:27.131Z,75.80
2024-02-01T12:55:29.137Z,61.25
2024-02-01T12:56:33.399Z,103.05
2024-02-01T12:57:37.568Z,66.05
2024-02-01T12:58:41.375Z,55.25
2024-02-01T12:59:45.723Z,34.03
2024-02-01T13:00:47.993Z,56.78
2024-02-01T13:01:51.799Z,73.13
2024-02-01T13:02:56.773Z,57.03
2024-02-01T13:03:59.734Z,45.88
2024-02-01T13:05:05.761Z,48.83
2024-02-01T13:06:08.936Z,111.75
2024-02-01T13:07:14.262Z,64.82
2024-02-01T13:08:17.438Z,107.65
2024-02-01T13:09:29.677Z,71.25
2024-02-01T13:10:40.053Z,66.20
2024-02-01T13:11:43.605Z,69.03
2024-02-01T13:12:57.578Z,87.88
2024-02-01T13:14:00.100Z,67.18
2024-02-01T13:15:06.850Z,74.47
2024-02-01T13:16:09.290Z,60.65
2024-02-01T13:17:13.806Z,92.70
2024-02-01T13:18:17.343Z,59.75
2024-02-01T13:19:20.443Z,53.58
2024-02-01T13:20:23.038Z,48.38
2024-02-01T13:21:26.664Z,58.22
2024-02-01T13:22:30.118Z,43.35
2024-02-01T13:23:33.043Z,47.55
2024-02-01T13:24:34.841Z,44.03
2024-02-01T13:25:39.330Z,37.25
2024-02-01T13:26:41.563Z,51.67
2024-02-01T13:27:44.532Z,58.15
2024-02-01T13:28:47.379Z,42.45
2024-02-01T13:29:50.422Z,40.35
2024-02-01T13:30:53.675Z,35.65
2024-02-01T13:31:56.892Z,36.85
2024-02-01T13:33:00.255Z,41.45
2024-02-01T13:34:03.940Z,32.60
2024-02-01T13:35:07.613Z,35.03
2024-02-01T13:36:11.695Z,34.80
2024-02-01T13:37:13.906Z,32.45
2024-02-01T13:38:16.922Z,37.00
2024-02-01T13:39:19.687Z,38.80
2024-02-01T13:40:21.810Z,33.38
2024-02-01T13:41:24.776Z,37.35
2024-02-01T13:42:26.730Z,35.85
2024-02-01T13:43:29.502Z,35.50
2024-02-01T13:44:33.352Z,33.97
2024-02-01T13:45:37.452Z,36.55
2024-02-01T13:46:40.861Z,37.28
2024-02-01T13:47:52.842Z,32.45
2024-02-01T13:48:56.179Z,32.50
2024-02-01T13:49:59.350Z,32.88
2024-02-01T13:51:04.753Z,32.85
2024-02-01T13:52:08.278Z,35.35
2024-02-01T13:53:10.313Z,36.35
2024-02-01T13:54:13.246Z,35.13
2024-02-01T13:55:15.496Z,34.75
2024-02-01T13:56:20.771Z,34.78
2024-02-01T13:57:22.879Z,35.53